sensor_id;sensor_type;location;lat;lon;timestamp;P1;durP1;ratioP1;P2;durP2;ratioP2
21274;SDS011;36472;52.170;20.884;2023-04-30T00:00:05;21.45;;;17.00;;
21274;SDS011;36472;52.170;20.884;2023-04-30T00:02:57;20.48;;;17.35;;
21274;SDS011;36472;52.170;20.884;2023-04-30T00:05:27;20.55;;;17.73;;
21274;SDS011;36472;52.170;20.884;2023-04-30T00:07:56;20.60;;;17.60;;
21274;SDS011;36472;52.170;20.884;2023-04-30T00:10:25;20.98;;;17.63;;
21274;SDS011;36472;52.170;20.884;2023-04-30T00:12:54;19.73;;;17.52;;
21274;SDS011;36472;52.170;20.884;2023-04-30T00:15:23;20.70;;;17.38;;
21274;SDS011;36472;52.170;20.884;2023-04-30T00:17:51;24.33;;;18.80;;
21274;SDS011;36472;52.170;20.884;2023-04-30T00:20:20;26.65;;;20.55;;
21274;SDS011;36472;52.170;20.884;2023-04-30T00:22:51;26.00;;;20.50;;
21274;SDS011;36472;52.170;20.884;2023-04-30T00:25:19;23.52;;;19.98;;
21274;SDS011;36472;52.170;20.884;2023-04-30T00:27:50;23.70;;;20.20;;
21274;SDS011;36472;52.170;20.884;2023-04-30T00:30:19;23.17;;;19.05;;
21274;SDS011;36472;52.170;20.884;2023-04-30T00:32:48;24.75;;;20.00;;
21274;SDS011;36472;52.170;20.884;2023-04-30T00:35:17;24.23;;;19.27;;
21274;SDS011;36472;52.170;20.884;2023-04-30T00:37:45;23.50;;;18.98;;
21274;SDS011;36472;52.170;20.884;2023-04-30T00:40:16;21.40;;;19.10;;
21274;SDS011;36472;52.170;20.884;2023-04-30T00:42:45;21.45;;;18.10;;
21274;SDS011;36472;52.170;20.884;2023-04-30T00:45:14;21.50;;;18.23;;
21274;SDS011;36472;52.170;20.884;2023-04-30T00:47:47;20.73;;;18.23;;
21274;SDS011;36472;52.170;20.884;2023-04-30T00:50:17;19.38;;;17.23;;
21274;SDS011;36472;52.170;20.884;2023-04-30T00:52:46;19.95;;;17.67;;
21274;SDS011;36472;52.170;20.884;2023-04-30T00:55:17;23.60;;;18.83;;
21274;SDS011;36472;52.170;20.884;2023-04-30T00:57:47;23.77;;;19.13;;
21274;SDS011;36472;52.170;20.884;2023-04-30T01:00:16;19.23;;;17.08;;
21274;SDS011;36472;52.170;20.884;2023-04-30T01:02:45;20.08;;;17.52;;
21274;SDS011;36472;52.170;20.884;2023-04-30T01:05:16;20.95;;;18.02;;
21274;SDS011;36472;52.170;20.884;2023-04-30T01:07:44;19.63;;;16.75;;
21274;SDS011;36472;52.170;20.884;2023-04-30T01:10:14;22.10;;;17.25;;
21274;SDS011;36472;52.170;20.884;2023-04-30T01:12:46;20.10;;;16.83;;
21274;SDS011;36472;52.170;20.884;2023-04-30T01:15:25;18.65;;;15.82;;
21274;SDS011;36472;52.170;20.884;2023-04-30T01:18:05;21.95;;;17.35;;
21274;SDS011;36472;52.170;20.884;2023-04-30T01:20:42;17.27;;;15.45;;
21274;SDS011;36472;52.170;20.884;2023-04-30T01:23:18;17.85;;;15.95;;
21274;SDS011;36472;52.170;20.884;2023-04-30T01:26:14;20.50;;;16.23;;
21274;SDS011;36472;52.170;20.884;2023-04-30T01:28:56;20.40;;;16.10;;
21274;SDS011;36472;52.170;20.884;2023-04-30T01:31:29;18.13;;;15.82;;
21274;SDS011;36472;52.170;20.884;2023-04-30T01:33:58;17.20;;;15.35;;
21274;SDS011;36472;52.170;20.884;2023-04-30T01:36:36;20.08;;;16.17;;
21274;SDS011;36472;52.170;20.884;2023-04-30T01:39:27;20.30;;;16.23;;
21274;SDS011;36472;52.170;20.884;2023-04-30T01:42:24;19.73;;;16.30;;
21274;SDS011;36472;52.170;20.884;2023-04-30T01:45:10;18.42;;;16.15;;
21274;SDS011;36472;52.170;20.884;2023-04-30T01:47:56;18.48;;;16.52;;
21274;SDS011;36472;52.170;20.884;2023-04-30T01:50:37;18.60;;;16.35;;
21274;SDS011;36472;52.170;20.884;2023-04-30T01:53:17;19.67;;;16.50;;
21274;SDS011;36472;52.170;20.884;2023-04-30T01:55:56;17.92;;;16.08;;
21274;SDS011;36472;52.170;20.884;2023-04-30T01:58:29;20.98;;;17.10;;
21274;SDS011;36472;52.170;20.884;2023-04-30T02:01:01;19.40;;;17.25;;
21274;SDS011;36472;52.170;20.884;2023-04-30T02:03:31;19.42;;;17.33;;
21274;SDS011;36472;52.170;20.884;2023-04-30T02:06:01;19.23;;;16.80;;
21274;SDS011;36472;52.170;20.884;2023-04-30T02:08:30;21.25;;;17.42;;
21274;SDS011;36472;52.170;20.884;2023-04-30T02:10:58;19.42;;;17.33;;
21274;SDS011;36472;52.170;20.884;2023-04-30T02:13:27;19.02;;;17.00;;
21274;SDS011;36472;52.170;20.884;2023-04-30T02:15:56;20.15;;;17.45;;
21274;SDS011;36472;52.170;20.884;2023-04-30T02:18:26;18.25;;;16.13;;
21274;SDS011;36472;52.170;20.884;2023-04-30T02:20:55;20.48;;;17.70;;
21274;SDS011;36472;52.170;20.884;2023-04-30T02:23:24;21.10;;;18.38;;
21274;SDS011;36472;52.170;20.884;2023-04-30T02:25:53;22.08;;;17.73;;
21274;SDS011;36472;52.170;20.884;2023-04-30T02:28:22;20.80;;;17.48;;
21274;SDS011;36472;52.170;20.884;2023-04-30T02:30:50;19.73;;;17.65;;
21274;SDS011;36472;52.170;20.884;2023-04-30T02:33:19;20.58;;;17.02;;
21274;SDS011;36472;52.170;20.884;2023-04-30T02:35:49;18.75;;;16.75;;
21274;SDS011;36472;52.170;20.884;2023-04-30T02:38:18;17.65;;;15.75;;
21274;SDS011;36472;52.170;20.884;2023-04-30T02:40:47;17.58;;;15.52;;
21274;SDS011;36472;52.170;20.884;2023-04-30T02:43:17;17.30;;;15.43;;
21274;SDS011;36472;52.170;20.884;2023-04-30T02:45:45;16.95;;;14.90;;
21274;SDS011;36472;52.170;20.884;2023-04-30T02:48:15;17.98;;;14.80;;
21274;SDS011;36472;52.170;20.884;2023-04-30T02:50:44;17.58;;;14.43;;
21274;SDS011;36472;52.170;20.884;2023-04-30T02:53:15;20.85;;;16.30;;
21274;SDS011;36472;52.170;20.884;2023-04-30T02:55:43;17.90;;;15.48;;
21274;SDS011;36472;52.170;20.884;2023-04-30T02:58:13;16.70;;;14.45;;
21274;SDS011;36472;52.170;20.884;2023-04-30T03:00:41;18.58;;;14.38;;
21274;SDS011;36472;52.170;20.884;2023-04-30T03:03:10;18.40;;;14.90;;
21274;SDS011;36472;52.170;20.884;2023-04-30T03:05:40;17.83;;;15.43;;
21274;SDS011;36472;52.170;20.884;2023-04-30T03:08:09;19.75;;;15.10;;
21274;SDS011;36472;52.170;20.884;2023-04-30T03:10:39;17.33;;;13.90;;
21274;SDS011;36472;52.170;20.884;2023-04-30T03:13:08;16.85;;;14.50;;
21274;SDS011;36472;52.170;20.884;2023-04-30T03:15:37;17.90;;;15.23;;
21274;SDS011;36472;52.170;20.884;2023-04-30T03:18:06;19.05;;;16.30;;
21274;SDS011;36472;52.170;20.884;2023-04-30T03:20:35;21.15;;;16.33;;
21274;SDS011;36472;52.170;20.884;2023-04-30T03:23:04;18.83;;;16.17;;
21274;SDS011;36472;52.170;20.884;2023-04-30T03:25:33;17.73;;;15.80;;
21274;SDS011;36472;52.170;20.884;2023-04-30T03:28:03;18.88;;;15.73;;
21274;SDS011;36472;52.170;20.884;2023-04-30T03:30:32;16.17;;;14.57;;
21274;SDS011;36472;52.170;20.884;2023-04-30T03:33:01;17.10;;;15.13;;
21274;SDS011;36472;52.170;20.884;2023-04-30T03:35:32;16.30;;;14.60;;
21274;SDS011;36472;52.170;20.884;2023-04-30T03:38:01;17.10;;;14.07;;
21274;SDS011;36472;52.170;20.884;2023-04-30T03:40:30;17.55;;;13.85;;
21274;SDS011;36472;52.170;20.884;2023-04-30T03:42:59;17.88;;;14.20;;
21274;SDS011;36472;52.170;20.884;2023-04-30T03:45:29;17.75;;;15.13;;
21274;SDS011;36472;52.170;20.884;2023-04-30T03:47:58;15.65;;;13.52;;
21274;SDS011;36472;52.170;20.884;2023-04-30T03:50:27;16.33;;;13.32;;
21274;SDS011;36472;52.170;20.884;2023-04-30T03:52:56;17.77;;;14.52;;
21274;SDS011;36472;52.170;20.884;2023-04-30T03:55:25;17.65;;;13.55;;
21274;SDS011;36472;52.170;20.884;2023-04-30T03:57:55;15.15;;;12.70;;
21274;SDS011;36472;52.170;20.884;2023-04-30T04:00:24;15.00;;;13.35;;
21274;SDS011;36472;52.170;20.884;2023-04-30T04:02:54;17.45;;;12.77;;
21274;SDS011;36472;52.170;20.884;2023-04-30T04:05:27;15.68;;;12.60;;
21274;SDS011;36472;52.170;20.884;2023-04-30T04:07:56;16.83;;;12.20;;
21274;SDS011;36472;52.170;20.884;2023-04-30T04:10:24;14.48;;;11.98;;
21274;SDS011;36472;52.170;20.884;2023-04-30T04:12:54;14.32;;;11.50;;
21274;SDS011;36472;52.170;20.884;2023-04-30T04:15:23;16.98;;;10.98;;
21274;SDS011;36472;52.170;20.884;2023-04-30T04:17:52;12.88;;;10.57;;
21274;SDS011;36472;52.170;20.884;2023-04-30T04:20:22;13.85;;;10.90;;
21274;SDS011;36472;52.170;20.884;2023-04-30T04:22:51;11.82;;;10.25;;
21274;SDS011;36472;52.170;20.884;2023-04-30T04:25:20;15.02;;;11.25;;
21274;SDS011;36472;52.170;20.884;2023-04-30T04:27:51;12.43;;;9.90;;
21274;SDS011;36472;52.170;20.884;2023-04-30T04:30:19;12.32;;;9.77;;
21274;SDS011;36472;52.170;20.884;2023-04-30T04:32:49;10.35;;;9.35;;
21274;SDS011;36472;52.170;20.884;2023-04-30T04:35:21;10.20;;;9.10;;
21274;SDS011;36472;52.170;20.884;2023-04-30T04:37:50;11.93;;;9.70;;
21274;SDS011;36472;52.170;20.884;2023-04-30T04:40:19;12.07;;;10.05;;
21274;SDS011;36472;52.170;20.884;2023-04-30T04:42:48;13.57;;;11.30;;
21274;SDS011;36472;52.170;20.884;2023-04-30T04:45:18;15.52;;;11.52;;
21274;SDS011;36472;52.170;20.884;2023-04-30T04:47:49;14.27;;;11.15;;
21274;SDS011;36472;52.170;20.884;2023-04-30T04:50:18;15.63;;;10.10;;
21274;SDS011;36472;52.170;20.884;2023-04-30T04:52:48;13.30;;;10.23;;
21274;SDS011;36472;52.170;20.884;2023-04-30T04:55:17;11.45;;;9.90;;
21274;SDS011;36472;52.170;20.884;2023-04-30T04:57:46;11.30;;;9.45;;
21274;SDS011;36472;52.170;20.884;2023-04-30T05:00:15;15.07;;;10.25;;
21274;SDS011;36472;52.170;20.884;2023-04-30T05:02:45;15.02;;;10.07;;
21274;SDS011;36472;52.170;20.884;2023-04-30T05:05:14;14.90;;;10.55;;
21274;SDS011;36472;52.170;20.884;2023-04-30T05:07:44;14.43;;;9.80;;
21274;SDS011;36472;52.170;20.884;2023-04-30T05:10:14;15.95;;;10.63;;
21274;SDS011;36472;52.170;20.884;2023-04-30T05:12:43;13.18;;;9.85;;
21274;SDS011;36472;52.170;20.884;2023-04-30T05:15:12;11.63;;;10.00;;
21274;SDS011;36472;52.170;20.884;2023-04-30T05:17:41;13.75;;;10.40;;
21274;SDS011;36472;52.170;20.884;2023-04-30T05:20:10;12.68;;;10.23;;
21274;SDS011;36472;52.170;20.884;2023-04-30T05:22:40;13.55;;;10.27;;
21274;SDS011;36472;52.170;20.884;2023-04-30T05:25:09;13.68;;;10.43;;
21274;SDS011;36472;52.170;20.884;2023-04-30T05:27:39;12.60;;;10.45;;
21274;SDS011;36472;52.170;20.884;2023-04-30T05:30:08;16.30;;;11.43;;
21274;SDS011;36472;52.170;20.884;2023-04-30T05:32:38;12.20;;;10.88;;
21274;SDS011;36472;52.170;20.884;2023-04-30T05:35:07;12.25;;;10.93;;
21274;SDS011;36472;52.170;20.884;2023-04-30T05:37:37;15.50;;;10.93;;
21274;SDS011;36472;52.170;20.884;2023-04-30T05:40:06;13.43;;;11.02;;
21274;SDS011;36472;52.170;20.884;2023-04-30T05:42:36;14.30;;;10.48;;
21274;SDS011;36472;52.170;20.884;2023-04-30T05:45:08;13.32;;;11.23;;
21274;SDS011;36472;52.170;20.884;2023-04-30T05:47:38;15.43;;;12.20;;
21274;SDS011;36472;52.170;20.884;2023-04-30T05:50:08;15.73;;;11.85;;
21274;SDS011;36472;52.170;20.884;2023-04-30T05:52:37;16.00;;;12.95;;
21274;SDS011;36472;52.170;20.884;2023-04-30T05:55:06;15.35;;;12.77;;
21274;SDS011;36472;52.170;20.884;2023-04-30T05:57:37;16.88;;;13.25;;
21274;SDS011;36472;52.170;20.884;2023-04-30T06:00:06;14.25;;;12.27;;
21274;SDS011;36472;52.170;20.884;2023-04-30T06:02:38;19.02;;;13.27;;
21274;SDS011;36472;52.170;20.884;2023-04-30T06:05:07;17.05;;;13.45;;
21274;SDS011;36472;52.170;20.884;2023-04-30T06:07:40;17.15;;;13.25;;
21274;SDS011;36472;52.170;20.884;2023-04-30T06:10:09;16.35;;;14.20;;
21274;SDS011;36472;52.170;20.884;2023-04-30T06:12:38;18.58;;;14.55;;
21274;SDS011;36472;52.170;20.884;2023-04-30T06:15:09;19.77;;;16.08;;
21274;SDS011;36472;52.170;20.884;2023-04-30T06:17:38;18.98;;;16.55;;
21274;SDS011;36472;52.170;20.884;2023-04-30T06:20:07;21.95;;;17.17;;
21274;SDS011;36472;52.170;20.884;2023-04-30T06:22:37;21.42;;;17.02;;
21274;SDS011;36472;52.170;20.884;2023-04-30T06:25:07;22.02;;;16.48;;
21274;SDS011;36472;52.170;20.884;2023-04-30T06:27:36;22.92;;;17.42;;
21274;SDS011;36472;52.170;20.884;2023-04-30T06:30:06;21.42;;;15.80;;
21274;SDS011;36472;52.170;20.884;2023-04-30T06:32:38;19.40;;;15.43;;
21274;SDS011;36472;52.170;20.884;2023-04-30T06:35:07;21.17;;;14.93;;
21274;SDS011;36472;52.170;20.884;2023-04-30T06:37:37;17.80;;;14.85;;
21274;SDS011;36472;52.170;20.884;2023-04-30T06:40:06;17.60;;;13.90;;
21274;SDS011;36472;52.170;20.884;2023-04-30T06:42:36;19.00;;;14.43;;
21274;SDS011;36472;52.170;20.884;2023-04-30T06:45:05;16.73;;;13.75;;
21274;SDS011;36472;52.170;20.884;2023-04-30T06:47:37;16.48;;;13.07;;
21274;SDS011;36472;52.170;20.884;2023-04-30T06:50:07;16.58;;;12.38;;
21274;SDS011;36472;52.170;20.884;2023-04-30T06:52:37;15.65;;;11.43;;
21274;SDS011;36472;52.170;20.884;2023-04-30T06:55:06;14.90;;;10.52;;
21274;SDS011;36472;52.170;20.884;2023-04-30T06:57:35;9.23;;;6.78;;
21274;SDS011;36472;52.170;20.884;2023-04-30T07:00:05;10.63;;;7.38;;
21274;SDS011;36472;52.170;20.884;2023-04-30T07:02:37;9.55;;;7.07;;
21274;SDS011;36472;52.170;20.884;2023-04-30T07:05:06;11.55;;;6.38;;
21274;SDS011;36472;52.170;20.884;2023-04-30T07:07:37;12.48;;;6.65;;
21274;SDS011;36472;52.170;20.884;2023-04-30T07:10:06;8.35;;;5.55;;
21274;SDS011;36472;52.170;20.884;2023-04-30T07:12:35;11.93;;;5.97;;
21274;SDS011;36472;52.170;20.884;2023-04-30T07:15:04;11.00;;;5.93;;
21274;SDS011;36472;52.170;20.884;2023-04-30T07:17:36;8.43;;;5.30;;
21274;SDS011;36472;52.170;20.884;2023-04-30T07:20:08;8.23;;;5.43;;
21274;SDS011;36472;52.170;20.884;2023-04-30T07:22:39;7.65;;;5.90;;
21274;SDS011;36472;52.170;20.884;2023-04-30T07:25:10;7.38;;;5.32;;
21274;SDS011;36472;52.170;20.884;2023-04-30T07:27:39;8.05;;;4.85;;
21274;SDS011;36472;52.170;20.884;2023-04-30T07:30:08;8.07;;;5.20;;
21274;SDS011;36472;52.170;20.884;2023-04-30T07:32:38;9.80;;;5.32;;
21274;SDS011;36472;52.170;20.884;2023-04-30T07:35:08;10.63;;;4.85;;
21274;SDS011;36472;52.170;20.884;2023-04-30T07:37:37;6.40;;;4.13;;
21274;SDS011;36472;52.170;20.884;2023-04-30T07:40:07;8.77;;;4.10;;
21274;SDS011;36472;52.170;20.884;2023-04-30T07:42:54;6.82;;;3.80;;
21274;SDS011;36472;52.170;20.884;2023-04-30T07:45:23;7.32;;;3.35;;
21274;SDS011;36472;52.170;20.884;2023-04-30T07:47:53;6.63;;;3.90;;
21274;SDS011;36472;52.170;20.884;2023-04-30T07:50:22;6.57;;;4.45;;
21274;SDS011;36472;52.170;20.884;2023-04-30T07:52:51;7.88;;;4.43;;
21274;SDS011;36472;52.170;20.884;2023-04-30T07:55:20;7.72;;;4.18;;
21274;SDS011;36472;52.170;20.884;2023-04-30T07:57:49;9.63;;;4.88;;
21274;SDS011;36472;52.170;20.884;2023-04-30T08:00:18;6.90;;;4.18;;
21274;SDS011;36472;52.170;20.884;2023-04-30T08:02:47;7.50;;;3.80;;
21274;SDS011;36472;52.170;20.884;2023-04-30T08:05:18;5.00;;;3.60;;
21274;SDS011;36472;52.170;20.884;2023-04-30T08:07:47;7.70;;;4.05;;
21274;SDS011;36472;52.170;20.884;2023-04-30T08:10:16;7.40;;;3.97;;
21274;SDS011;36472;52.170;20.884;2023-04-30T08:12:45;4.63;;;3.50;;
21274;SDS011;36472;52.170;20.884;2023-04-30T08:15:13;5.53;;;3.83;;
21274;SDS011;36472;52.170;20.884;2023-04-30T08:17:42;6.22;;;3.10;;
21274;SDS011;36472;52.170;20.884;2023-04-30T08:20:11;6.00;;;3.25;;
21274;SDS011;36472;52.170;20.884;2023-04-30T08:22:41;6.05;;;3.38;;
21274;SDS011;36472;52.170;20.884;2023-04-30T08:25:11;7.15;;;3.38;;
21274;SDS011;36472;52.170;20.884;2023-04-30T08:27:40;8.18;;;3.47;;
21274;SDS011;36472;52.170;20.884;2023-04-30T08:30:09;7.30;;;3.42;;
21274;SDS011;36472;52.170;20.884;2023-04-30T08:32:39;5.80;;;3.38;;
21274;SDS011;36472;52.170;20.884;2023-04-30T08:35:08;7.10;;;3.28;;
21274;SDS011;36472;52.170;20.884;2023-04-30T08:37:37;6.03;;;3.47;;
21274;SDS011;36472;52.170;20.884;2023-04-30T08:40:08;5.88;;;3.10;;
21274;SDS011;36472;52.170;20.884;2023-04-30T08:42:40;4.28;;;2.80;;
21274;SDS011;36472;52.170;20.884;2023-04-30T08:45:17;7.28;;;3.30;;
21274;SDS011;36472;52.170;20.884;2023-04-30T08:47:46;7.50;;;3.15;;
21274;SDS011;36472;52.170;20.884;2023-04-30T08:50:17;5.00;;;2.83;;
21274;SDS011;36472;52.170;20.884;2023-04-30T08:52:46;4.05;;;2.13;;
21274;SDS011;36472;52.170;20.884;2023-04-30T08:55:17;3.83;;;2.30;;
21274;SDS011;36472;52.170;20.884;2023-04-30T08:57:46;4.53;;;2.97;;
21274;SDS011;36472;52.170;20.884;2023-04-30T09:00:14;5.30;;;2.30;;
21274;SDS011;36472;52.170;20.884;2023-04-30T09:02:44;5.25;;;2.30;;
21274;SDS011;36472;52.170;20.884;2023-04-30T09:05:15;5.03;;;2.30;;
21274;SDS011;36472;52.170;20.884;2023-04-30T09:07:44;4.22;;;2.33;;
21274;SDS011;36472;52.170;20.884;2023-04-30T09:10:18;5.50;;;2.30;;
21274;SDS011;36472;52.170;20.884;2023-04-30T09:12:58;5.95;;;2.63;;
21274;SDS011;36472;52.170;20.884;2023-04-30T09:15:29;8.75;;;4.35;;
21274;SDS011;36472;52.170;20.884;2023-04-30T09:18:06;5.32;;;2.72;;
21274;SDS011;36472;52.170;20.884;2023-04-30T09:20:38;2.70;;;2.22;;
21274;SDS011;36472;52.170;20.884;2023-04-30T09:23:23;4.57;;;2.00;;
21274;SDS011;36472;52.170;20.884;2023-04-30T09:25:54;4.95;;;2.17;;
21274;SDS011;36472;52.170;20.884;2023-04-30T09:28:24;3.90;;;2.10;;
21274;SDS011;36472;52.170;20.884;2023-04-30T09:30:55;2.92;;;1.83;;
21274;SDS011;36472;52.170;20.884;2023-04-30T09:33:25;4.53;;;2.00;;
21274;SDS011;36472;52.170;20.884;2023-04-30T09:35:53;3.13;;;1.63;;
21274;SDS011;36472;52.170;20.884;2023-04-30T09:38:26;6.65;;;2.03;;
21274;SDS011;36472;52.170;20.884;2023-04-30T09:40:58;4.70;;;2.00;;
21274;SDS011;36472;52.170;20.884;2023-04-30T09:43:29;4.50;;;1.80;;
21274;SDS011;36472;52.170;20.884;2023-04-30T09:45:58;3.90;;;1.75;;
21274;SDS011;36472;52.170;20.884;2023-04-30T09:48:27;4.85;;;2.35;;
21274;SDS011;36472;52.170;20.884;2023-04-30T09:50:56;2.58;;;1.55;;
21274;SDS011;36472;52.170;20.884;2023-04-30T09:53:25;2.55;;;1.92;;
21274;SDS011;36472;52.170;20.884;2023-04-30T09:55:55;2.47;;;1.80;;
21274;SDS011;36472;52.170;20.884;2023-04-30T09:58:35;6.70;;;2.30;;
21274;SDS011;36472;52.170;20.884;2023-04-30T10:01:05;2.90;;;1.90;;
21274;SDS011;36472;52.170;20.884;2023-04-30T10:03:37;4.20;;;2.17;;
21274;SDS011;36472;52.170;20.884;2023-04-30T10:06:11;4.05;;;2.25;;
21274;SDS011;36472;52.170;20.884;2023-04-30T10:08:42;5.10;;;2.28;;
21274;SDS011;36472;52.170;20.884;2023-04-30T10:11:17;4.97;;;2.60;;
21274;SDS011;36472;52.170;20.884;2023-04-30T10:13:50;4.35;;;2.25;;
21274;SDS011;36472;52.170;20.884;2023-04-30T10:16:27;7.40;;;2.60;;
21274;SDS011;36472;52.170;20.884;2023-04-30T10:19:07;4.97;;;2.22;;
21274;SDS011;36472;52.170;20.884;2023-04-30T10:21:41;5.13;;;2.22;;
21274;SDS011;36472;52.170;20.884;2023-04-30T10:24:13;2.60;;;2.25;;
21274;SDS011;36472;52.170;20.884;2023-04-30T10:26:46;6.28;;;2.15;;
21274;SDS011;36472;52.170;20.884;2023-04-30T10:29:17;4.18;;;2.05;;
21274;SDS011;36472;52.170;20.884;2023-04-30T10:31:46;3.35;;;1.65;;
21274;SDS011;36472;52.170;20.884;2023-04-30T10:34:20;3.53;;;1.75;;
21274;SDS011;36472;52.170;20.884;2023-04-30T10:37:01;3.92;;;1.65;;
21274;SDS011;36472;52.170;20.884;2023-04-30T10:39:38;2.25;;;1.17;;
21274;SDS011;36472;52.170;20.884;2023-04-30T10:42:09;2.30;;;1.40;;
21274;SDS011;36472;52.170;20.884;2023-04-30T10:44:39;3.47;;;1.20;;
21274;SDS011;36472;52.170;20.884;2023-04-30T10:47:08;1.73;;;1.55;;
21274;SDS011;36472;52.170;20.884;2023-04-30T10:49:37;1.67;;;1.55;;
21274;SDS011;36472;52.170;20.884;2023-04-30T10:52:09;4.20;;;1.40;;
21274;SDS011;36472;52.170;20.884;2023-04-30T10:54:38;3.45;;;1.60;;
21274;SDS011;36472;52.170;20.884;2023-04-30T10:57:17;2.17;;;1.50;;
21274;SDS011;36472;52.170;20.884;2023-04-30T10:59:52;2.88;;;1.42;;
21274;SDS011;36472;52.170;20.884;2023-04-30T11:02:54;2.60;;;1.63;;
21274;SDS011;36472;52.170;20.884;2023-04-30T11:05:34;5.15;;;1.77;;
21274;SDS011;36472;52.170;20.884;2023-04-30T11:08:04;3.70;;;1.77;;
21274;SDS011;36472;52.170;20.884;2023-04-30T11:10:40;2.95;;;1.77;;
21274;SDS011;36472;52.170;20.884;2023-04-30T11:13:27;2.30;;;1.80;;
21274;SDS011;36472;52.170;20.884;2023-04-30T11:16:01;3.80;;;1.90;;
21274;SDS011;36472;52.170;20.884;2023-04-30T11:18:31;4.55;;;1.77;;
21274;SDS011;36472;52.170;20.884;2023-04-30T11:21:00;3.10;;;1.63;;
21274;SDS011;36472;52.170;20.884;2023-04-30T11:23:31;3.42;;;1.55;;
21274;SDS011;36472;52.170;20.884;2023-04-30T11:26:08;4.32;;;1.83;;
21274;SDS011;36472;52.170;20.884;2023-04-30T11:28:38;2.85;;;1.75;;
21274;SDS011;36472;52.170;20.884;2023-04-30T11:31:25;2.95;;;1.27;;
21274;SDS011;36472;52.170;20.884;2023-04-30T11:34:00;4.07;;;1.70;;
21274;SDS011;36472;52.170;20.884;2023-04-30T11:36:30;4.70;;;1.60;;
21274;SDS011;36472;52.170;20.884;2023-04-30T11:39:00;5.28;;;1.80;;
21274;SDS011;36472;52.170;20.884;2023-04-30T11:41:39;2.83;;;1.63;;
21274;SDS011;36472;52.170;20.884;2023-04-30T11:44:22;5.18;;;1.83;;
21274;SDS011;36472;52.170;20.884;2023-04-30T11:46:53;4.22;;;1.50;;
21274;SDS011;36472;52.170;20.884;2023-04-30T11:49:22;2.95;;;1.65;;
21274;SDS011;36472;52.170;20.884;2023-04-30T11:51:51;3.83;;;1.60;;
21274;SDS011;36472;52.170;20.884;2023-04-30T11:54:20;2.92;;;1.67;;
21274;SDS011;36472;52.170;20.884;2023-04-30T11:56:50;5.20;;;1.80;;
21274;SDS011;36472;52.170;20.884;2023-04-30T11:59:18;4.63;;;1.80;;
21274;SDS011;36472;52.170;20.884;2023-04-30T12:01:49;3.72;;;1.80;;
21274;SDS011;36472;52.170;20.884;2023-04-30T12:04:18;2.80;;;1.85;;
21274;SDS011;36472;52.170;20.884;2023-04-30T12:06:47;4.22;;;1.85;;
21274;SDS011;36472;52.170;20.884;2023-04-30T12:09:17;2.92;;;2.03;;
21274;SDS011;36472;52.170;20.884;2023-04-30T12:11:46;2.70;;;1.52;;
21274;SDS011;36472;52.170;20.884;2023-04-30T12:14:15;5.65;;;1.85;;
21274;SDS011;36472;52.170;20.884;2023-04-30T12:16:45;3.80;;;1.75;;
21274;SDS011;36472;52.170;20.884;2023-04-30T12:19:20;4.57;;;1.58;;
21274;SDS011;36472;52.170;20.884;2023-04-30T12:21:51;3.47;;;1.70;;
21274;SDS011;36472;52.170;20.884;2023-04-30T12:24:21;2.50;;;1.42;;
21274;SDS011;36472;52.170;20.884;2023-04-30T12:26:54;2.70;;;1.60;;
21274;SDS011;36472;52.170;20.884;2023-04-30T12:29:27;3.47;;;1.60;;
21274;SDS011;36472;52.170;20.884;2023-04-30T12:31:58;4.22;;;1.63;;
21274;SDS011;36472;52.170;20.884;2023-04-30T12:34:27;4.70;;;1.70;;
21274;SDS011;36472;52.170;20.884;2023-04-30T12:37:00;2.63;;;1.50;;
21274;SDS011;36472;52.170;20.884;2023-04-30T12:39:32;4.47;;;1.77;;
21274;SDS011;36472;52.170;20.884;2023-04-30T12:42:01;3.40;;;1.85;;
21274;SDS011;36472;52.170;20.884;2023-04-30T12:44:30;5.45;;;1.80;;
21274;SDS011;36472;52.170;20.884;2023-04-30T12:47:11;2.53;;;1.77;;
21274;SDS011;36472;52.170;20.884;2023-04-30T12:49:41;4.20;;;1.50;;
21274;SDS011;36472;52.170;20.884;2023-04-30T12:52:13;4.43;;;1.90;;
21274;SDS011;36472;52.170;20.884;2023-04-30T12:54:42;3.42;;;1.48;;
21274;SDS011;36472;52.170;20.884;2023-04-30T12:57:11;4.70;;;1.58;;
21274;SDS011;36472;52.170;20.884;2023-04-30T12:59:55;3.80;;;1.45;;
21274;SDS011;36472;52.170;20.884;2023-04-30T13:02:28;3.38;;;1.70;;
21274;SDS011;36472;52.170;20.884;2023-04-30T13:04:58;2.67;;;1.30;;
21274;SDS011;36472;52.170;20.884;2023-04-30T13:07:35;2.88;;;1.60;;
21274;SDS011;36472;52.170;20.884;2023-04-30T13:10:05;3.58;;;1.80;;
21274;SDS011;36472;52.170;20.884;2023-04-30T13:12:35;3.97;;;1.40;;
21274;SDS011;36472;52.170;20.884;2023-04-30T13:15:04;2.03;;;1.40;;
21274;SDS011;36472;52.170;20.884;2023-04-30T13:17:36;2.47;;;1.38;;
21274;SDS011;36472;52.170;20.884;2023-04-30T13:20:06;2.75;;;1.23;;
21274;SDS011;36472;52.170;20.884;2023-04-30T13:22:36;4.20;;;1.75;;
21274;SDS011;36472;52.170;20.884;2023-04-30T13:25:05;4.55;;;1.77;;
21274;SDS011;36472;52.170;20.884;2023-04-30T13:27:35;3.10;;;1.60;;
21274;SDS011;36472;52.170;20.884;2023-04-30T13:30:04;2.33;;;1.65;;
21274;SDS011;36472;52.170;20.884;2023-04-30T13:32:36;4.53;;;1.52;;
21274;SDS011;36472;52.170;20.884;2023-04-30T13:35:05;1.63;;;1.25;;
21274;SDS011;36472;52.170;20.884;2023-04-30T13:37:36;2.20;;;1.30;;
21274;SDS011;36472;52.170;20.884;2023-04-30T13:40:05;2.78;;;1.60;;
21274;SDS011;36472;52.170;20.884;2023-04-30T13:42:36;2.97;;;1.40;;
21274;SDS011;36472;52.170;20.884;2023-04-30T13:45:08;2.83;;;1.65;;
21274;SDS011;36472;52.170;20.884;2023-04-30T13:47:40;2.00;;;1.60;;
21274;SDS011;36472;52.170;20.884;2023-04-30T13:50:09;3.45;;;1.70;;
21274;SDS011;36472;52.170;20.884;2023-04-30T13:52:39;3.10;;;1.38;;
21274;SDS011;36472;52.170;20.884;2023-04-30T13:55:08;3.72;;;1.40;;
21274;SDS011;36472;52.170;20.884;2023-04-30T13:57:37;5.30;;;1.40;;
21274;SDS011;36472;52.170;20.884;2023-04-30T14:00:06;3.40;;;1.30;;
21274;SDS011;36472;52.170;20.884;2023-04-30T14:02:36;2.15;;;1.20;;
21274;SDS011;36472;52.170;20.884;2023-04-30T14:05:07;3.92;;;1.42;;
21274;SDS011;36472;52.170;20.884;2023-04-30T14:07:37;4.22;;;1.35;;
21274;SDS011;36472;52.170;20.884;2023-04-30T14:10:06;3.80;;;1.40;;
21274;SDS011;36472;52.170;20.884;2023-04-30T14:12:35;3.22;;;1.65;;
21274;SDS011;36472;52.170;20.884;2023-04-30T14:15:04;2.97;;;1.60;;
21274;SDS011;36472;52.170;20.884;2023-04-30T14:17:34;3.03;;;1.48;;
21274;SDS011;36472;52.170;20.884;2023-04-30T14:20:03;3.25;;;1.58;;
21274;SDS011;36472;52.170;20.884;2023-04-30T14:22:37;1.63;;;1.10;;
21274;SDS011;36472;52.170;20.884;2023-04-30T14:25:06;4.38;;;1.48;;
21274;SDS011;36472;52.170;20.884;2023-04-30T14:27:38;3.28;;;1.17;;
21274;SDS011;36472;52.170;20.884;2023-04-30T14:30:08;2.33;;;1.00;;
21274;SDS011;36472;52.170;20.884;2023-04-30T14:32:37;3.40;;;1.55;;
21274;SDS011;36472;52.170;20.884;2023-04-30T14:35:08;4.20;;;1.20;;
21274;SDS011;36472;52.170;20.884;2023-04-30T14:37:37;1.98;;;1.27;;
21274;SDS011;36472;52.170;20.884;2023-04-30T14:40:07;2.58;;;1.15;;
21274;SDS011;36472;52.170;20.884;2023-04-30T14:42:37;2.75;;;1.65;;
21274;SDS011;36472;52.170;20.884;2023-04-30T14:45:07;2.17;;;1.30;;